Weather reports worldwide

Advertisment
Zinnwald-Georgenfeld, Germany (10582): temperature & dewpoint: 12.10.2018 14:00:00 - 18.10.2018 14:00:00 (CEST)Zinnwald-Georgenfeld, Germany (10582): temperature 5cm & temperature -5cm: 12.10.2018 14:00:00 - 18.10.2018 14:00:00 (CEST)Zinnwald-Georgenfeld, Germany (10582): temperature -20cm & temperature -100cm: 12.10.2018 14:00:00 - 18.10.2018 14:00:00 (CEST)Zinnwald-Georgenfeld, Germany (10582): wind speed & gusts: 12.10.2018 14:00:00 - 18.10.2018 14:00:00 (CEST)Zinnwald-Georgenfeld, Germany (10582): wind direction: 12.10.2018 14:00:00 - 18.10.2018 14:00:00 (CEST)Zinnwald-Georgenfeld, Germany (10582): visibility: 12.10.2018 14:00:00 - 18.10.2018 14:00:00 (CEST)Zinnwald-Georgenfeld, Germany (10582): sunshine duration: 12.10.2018 14:00:00 - 18.10.2018 14:00:00 (CEST)Zinnwald-Georgenfeld, Germany (10582): precipitation: 12.10.2018 14:00:00 - 18.10.2018 14:00:00 (CEST)
Date & Time tt [°C] td [°C] tt 5cm [°C] tt -5cm [°C] tt -20cm [°C] tt -100cm [°C] ff [km/h] ff [kn] fx [km/h] fx [kn] dd vv [km] sd [min] rr [mm]
18.10.2018 14:00:00 14,2 7,9 17,6 17,0 10,1 11,3 9 5 14 8 N 7 57 0,0
18.10.2018 13:00:00 13,8 7,8 17,1 15,2 9,5 11,3 9 5 15 8 N 7 54 0,0
18.10.2018 12:00:00 13,5 8,3 16,2 13,7 9,0 11,3 8 4 17 9 N 6 57 0,0
18.10.2018 11:00:00 11,8 8,0 11,8 10,8 8,6 11,3 11 6 17 9 NNW 4,4 38 0,0
18.10.2018 10:00:00 11,4 8,4 12,7 9,4 8,5 11,3 12 6 17 9 NNW 4,0 27 0,0
18.10.2018 09:00:00 9,5 7,4 8,9 6,9 8,6 11,3 11 6 17 9 NNW 3,1 10 0,0
18.10.2018 08:00:00 9,0 7,0 6,5 5,7 8,7 11,3 12 6 15 8 NNW 3,0 0 0,0
18.10.2018 07:00:00 9,2 7,0 6,2 5,7 8,9 11,3 9 5 14 8 NNW 3,1 0 0,0
18.10.2018 06:00:00 9,1 6,6 5,6 5,6 9,1 11,3 14 7 16 9 WNW 3,5 0 0,0
18.10.2018 05:00:00 9,5 6,5 5,2 5,7 9,4 11,3 14 7 15 8 WNW 4,1 0 0,0
18.10.2018 04:00:00 10,4 6,4 4,1 5,9 9,6 11,3 10 5 12 7 W 6 0 0,0
18.10.2018 03:00:00 10,5 6,8 4,1 6,3 9,9 11,3 8 4 14 7 W 6 0 0,0
18.10.2018 02:00:00 10,6 6,8 7,0 6,8 10,1 11,3 13 7 16 9 SW 8 0 0,0
18.10.2018 01:00:00 10,2 6,7 6,8 7,0 10,4 11,3 16 9 18 10 SW 8 0 0,0
18.10.2018 00:00:00 9,7 6,4 6,3 7,2 10,7 11,3 13 7 15 8 SSW 6 0 0,0
17.10.2018 23:00:00 9,2 6,0 5,7 7,6 11,1 11,3 13 7 14 8 SSW 7 0 0,0
17.10.2018 22:00:00 9,3 6,3 5,7 8,0 11,5 11,3 11 6 13 7 SSW 7 0 0,0
17.10.2018 21:00:00 8,9 6,0 5,9 8,6 11,9 11,3 11 6 16 9 S 7 0 0,0
17.10.2018 20:00:00 8,8 6,0 5,7 9,5 12,3 11,3 13 7 16 9 SSE 7 0 0,0
17.10.2018 19:00:00 9,5 6,0 6,3 10,7 12,5 11,3 11 6 15 8 S 8 0 0,0
17.10.2018 18:00:00 11,2 6,6 8,9 12,7 12,6 11,3 13 7 15 8 S 10 45 0,0
17.10.2018 17:00:00 13,2 7,3 12,4 15,1 12,4 11,3 11 6 18 10 S 11 60 0,0
17.10.2018 16:00:00 14,1 7,3 15,7 16,6 11,9 11,3 15 8 20 11 S 12 60 0,0
17.10.2018 15:00:00 14,6 7,3 17,1 17,8 11,2 11,3 14 8 20 11 S 12 60 0,0
17.10.2018 14:00:00 14,6 7,1 17,5 17,5 10,5 11,3 15 8 21 11 S 13 60 0,0
17.10.2018 13:00:00 15,1 7,5 18,1 16,6 9,7 11,3 11 6 18 10 S 17 60 0,0
17.10.2018 12:00:00 14,1 7,8 16,6 14,6 9,1 11,3 13 7 20 11 SSE 12 60 0,0
17.10.2018 11:00:00 13,3 7,9 15,0 12,0 8,8 11,3 14 8 23 12 S 11 60 0,0
17.10.2018 10:00:00 11,3 7,2 12,2 9,1 8,6 11,3 15 8 19 11 S 10 60 0,0
17.10.2018 09:00:00 9,1 6,5 9,1 6,6 8,8 11,3 11 6 17 9 S 9 42 0,0
17.10.2018 08:00:00 7,3 5,4 5,1 5,4 9,0 11,3 16 8 17 9 S 7 0 0,0
17.10.2018 07:00:00 8,6 5,5 5,2 5,5 9,2 11,3 11 6 16 9 S 11 0 0,0
17.10.2018 06:00:00 8,6 5,1 5,4 5,8 9,4 11,3 15 8 18 10 S 12 0 0,0
17.10.2018 05:00:00 8,5 5,0 5,3 6,0 9,7 11,3 15 8 18 10 S 11 0 0,0
17.10.2018 04:00:00 8,4 5,0 5,0 6,3 9,9 11,3 14 8 19 10 S 10 0 0,0
17.10.2018 03:00:00 8,6 5,0 5,5 6,6 10,2 11,3 17 9 21 11 S 12 0 0,0
17.10.2018 02:00:00 8,9 5,0 6,3 6,8 10,5 11,3 19 11 21 11 S 14 0 0,0
17.10.2018 01:00:00 9,5 5,2 6,7 7,2 10,8 11,3 16 9 20 11 S 16 0 0,0
17.10.2018 00:00:00 9,3 5,3 5,2 7,5 11,2 11,3 8 5 16 9 S 12 0 0,0
16.10.2018 23:00:00 9,3 5,2 5,4 7,9 11,5 11,3 10 5 14 8 S 11 0 0,0
16.10.2018 22:00:00 9,8 5,2 4,6 8,5 11,9 11,3 8 4 11 6 SSW 13 0 0,0
16.10.2018 21:00:00 9,9 5,0 5,9 9,5 12,3 11,3 8 4 13 7 S 16 0 0,0
16.10.2018 20:00:00 10,7 5,1 7,5 10,3 12,7 11,3 11 6 12 7 SW 18 0 0,0
16.10.2018 19:00:00 10,1 4,9 7,2 11,5 12,9 11,3 9 5 12 7 S 18 0 0,0
16.10.2018 18:00:00 10,9 5,2 8,5 13,1 13,0 11,3 11 6 17 9 S 19 0 0,0
16.10.2018 17:00:00 13,0 5,6 12,0 15,4 12,8 11,3 12 7 19 10 S 19 53 0,0
16.10.2018 16:00:00 14,2 5,5 15,8 17,0 12,4 11,3 16 8 22 12 S 18 60 0,0
16.10.2018 15:00:00 14,9 5,7 17,7 18,3 11,8 11,3 14 8 24 13 S 14 60 0,0
16.10.2018 14:00:00 14,2 5,8 17,6 17,8 11,1 11,3 16 9 26 14 SSE 15 60 0,0
16.10.2018 13:00:00 13,5 5,5 16,7 16,9 10,5 11,3 16 9 23 12 S 14 60 0,0
16.10.2018 12:00:00 13,3 5,2 16,1 15,4 10,0 11,3 15 8 20 11 SSE 19 60 0,0
16.10.2018 11:00:00 12,0 5,1 14,4 13,0 9,6 11,3 16 9 25 14 S 14 58 0,0
16.10.2018 10:00:00 9,6 4,5 10,8 10,0 9,6 11,3 17 9 24 13 S 22 1 0,0
16.10.2018 09:00:00 8,8 4,0 8,8 8,9 9,6 11,3 18 10 30 16 S 25 41 0,0
16.10.2018 08:00:00 8,1 3,8 7,7 8,0 9,7 11,3 19 10 30 16 SSE 24 0 0,0
16.10.2018 07:00:00 8,3 3,6 7,8 8,0 9,8 11,3 23 12 31 17 SSE 26 0 0,0
16.10.2018 06:00:00 8,4 3,7 7,7 8,2 9,9 11,3 21 12 33 18 SSE 24 0 0,0
16.10.2018 05:00:00 8,7 3,8 8,0 8,2 10,0 11,3 24 13 35 19 SSE 26 0 0,0
16.10.2018 04:00:00 9,0 4,1 8,1 8,4 10,2 11,3 29 16 37 20 SSE 26 0 0,0
16.10.2018 03:00:00 9,3 4,3 8,7 8,8 10,3 11,3 28 15 37 20 SSE 28 0 0,0
16.10.2018 02:00:00 9,6 4,6 9,1 9,1 10,4 11,3 25 14 37 20 SSE 25 0 0,0
16.10.2018 01:00:00 10,1 4,1 9,6 9,1 10,5 11,3 27 15 37 20 SSE 27 0 0,0
16.10.2018 00:00:00 10,1 4,1 9,5 9,0 10,7 11,3 27 15 38 21 SSE 28 0 0,0
15.10.2018 23:00:00 10,2 4,1 9,2 8,7 10,9 11,3 25 14 36 20 SSE 23 0 0,0
15.10.2018 22:00:00 10,4 3,8 9,0 9,0 11,1 11,3 26 14 37 20 SSE 27 0 0,0
15.10.2018 21:00:00 11,2 3,7 9,7 9,5 11,4 11,3 29 16 43 23 SSE 30 0 0,0
15.10.2018 20:00:00 12,2 3,7 10,7 10,2 11,6 11,3 29 16 39 21 SSE 30 0 0,0
15.10.2018 19:00:00 12,3 2,3 10,9 10,7 11,7 11,3 22 12 31 17 SSE 35 0 0,0
15.10.2018 18:00:00 12,7 1,9 11,5 12,1 11,8 11,3 24 13 40 22 SSE 31 0 0,0
15.10.2018 17:00:00 13,3 1,7 13,0 13,2 11,7 11,3 29 16 40 22 SSE 27 0 0,0
15.10.2018 16:00:00 13,2 2,1 13,2 14,3 11,4 11,3 29 16 40 22 S 22 0 0,0
15.10.2018 15:00:00 13,4 1,7 13,7 16,1 10,8 11,3 27 15 42 23 SSE 22 34 0,0
15.10.2018 14:00:00 14,8 2,6 18,9 16,3 10,2 11,3 29 16 47 26 SSE 15 48 0,0
15.10.2018 13:00:00 12,3 1,4 13,6 14,8 9,7 11,3 34 18 47 26 SSE 17 52 0,0
15.10.2018 12:00:00 12,1 1,6 14,0 12,4 9,3 11,3 27 15 41 22 SSE 15 48 0,0
15.10.2018 11:00:00 10,5 1,2 10,6 9,9 9,1 11,3 29 15 40 21 SSE 20 40 0,0
15.10.2018 10:00:00 10,0 1,2 10,0 8,6 9,1 11,3 23 12 36 19 SSE 24 59 0,0
15.10.2018 09:00:00 9,2 1,7 9,0 6,7 9,3 11,3 24 13 38 20 SSE 19 32 0,0
15.10.2018 08:00:00 8,2 1,5 6,9 6,2 9,5 11,3 26 14 37 20 SSE 25 0 0,0
15.10.2018 07:00:00 8,2 1,6 6,7 6,4 9,7 11,3 26 14 41 22 SSE 32 0 0,0
15.10.2018 06:00:00 8,6 1,8 7,3 6,8 9,9 11,3 31 17 51 28 SSE 32 0 0,0
15.10.2018 05:00:00 9,0 2,0 7,9 7,2 10,1 11,3 37 20 54 29 SSE 36 0 0,0
15.10.2018 04:00:00 9,1 2,0 7,9 7,3 10,4 11,3 34 18 47 26 SSE 37 0 0,0
15.10.2018 03:00:00 9,4 2,3 8,0 7,6 10,6 11,3 31 17 55 30 SSE 35 0 0,0
15.10.2018 02:00:00 9,9 2,2 8,6 8,0 10,9 11,2 35 19 60 33 SSE 35 0 0,0
15.10.2018 01:00:00 10,2 2,2 8,8 8,4 11,1 11,2 39 21 56 30 SSE 42 0 0,0
15.10.2018 00:00:00 10,5 2,3 9,2 8,7 11,4 11,2 38 20 56 30 S 40 0 0,0
14.10.2018 23:00:00 10,8 2,3 9,6 9,2 11,7 11,2 40 22 59 32 SSE 39 0 0,0
14.10.2018 22:00:00 11,4 2,5 10,2 9,7 12,0 11,2 40 22 61 33 SSE 38 0 0,0
14.10.2018 21:00:00 12,1 3,6 10,5 10,3 12,3 11,2 34 18 50 27 S 35 0 0,0
14.10.2018 20:00:00 13,2 4,6 11,3 11,3 12,6 11,2 25 14 47 25 S 29 0 0,0
14.10.2018 19:00:00 14,9 5,0 13,1 12,4 12,7 11,2 26 14 54 29 S 27 0 0,0
14.10.2018 18:00:00 16,0 4,9 14,6 13,7 12,7 11,2 36 20 58 32 SSE 28 55 0,0
14.10.2018 17:00:00 16,9 5,0 16,0 15,7 12,4 11,2 37 20 65 35 SSE 18 60 0,0
14.10.2018 16:00:00 17,3 5,0 17,9 16,6 12,0 11,2 46 25 67 36 SSE 10 60 0,0
14.10.2018 15:00:00 16,9 5,1 18,2 17,4 11,4 11,2 45 25 64 35 SSE 9 60 0,0
14.10.2018 14:00:00 15,8 5,5 17,7 16,9 10,7 11,2 40 22 55 30 SSE 11 60 0,0
14.10.2018 13:00:00 14,7 5,8 16,8 15,8 10,1 11,2 36 19 52 28 SSE 21 60 0,0
14.10.2018 12:00:00 13,3 6,0 14,9 13,9 9,6 11,2 37 20 65 35 SSE 11 60 0,0
14.10.2018 11:00:00 11,6 6,0 12,5 11,5 9,3 11,2 49 27 66 36 SSE 7 60 0,0
14.10.2018 10:00:00 10,5 6,0 11,1 9,3 9,3 11,2 32 17 58 31 S 11 60 0,0
14.10.2018 09:00:00 9,2 5,9 9,1 7,6 9,4 11,2 44 24 61 33 SSE 12 54 0,0
14.10.2018 08:00:00 8,2 6,0 7,4 6,8 9,6 11,2 48 26 68 37 SSE 9 0 0,0
14.10.2018 07:00:00 8,2 6,0 7,2 6,9 9,7 11,2 51 27 66 36 SSE 9 0 0,0
14.10.2018 06:00:00 8,2 6,0 7,2 7,0 9,9 11,2 40 22 60 33 SSE 9 0 0,0
14.10.2018 05:00:00 8,6 6,0 7,5 7,2 10,2 11,2 41 22 59 32 SSE 10 0 0,0
14.10.2018 04:00:00 8,7 6,2 7,7 7,4 10,4 11,2 40 22 56 30 SSE 9 0 0,0
14.10.2018 03:00:00 9,2 6,4 8,0 7,6 10,7 11,2 34 18 50 27 S 10 0 0,0
14.10.2018 02:00:00 9,2 6,3 8,0 7,8 10,9 11,2 33 18 48 26 SSE 9 0 0,0
14.10.2018 01:00:00 9,7 6,3 8,1 8,2 11,2 11,2 24 13 43 23 S 10 0 0,0
14.10.2018 00:00:00 10,3 6,3 8,8 8,7 11,5 11,2 24 13 44 24 S 10 0 0,0
13.10.2018 23:00:00 10,7 6,2 9,0 9,2 11,8 11,2 24 13 42 23 SSE 11 0 0,0
13.10.2018 22:00:00 11,6 6,3 10,2 9,8 12,1 11,2 28 15 55 30 SSE 14 0 0,0
13.10.2018 21:00:00 12,6 6,2 11,2 10,4 12,4 11,2 37 20 53 29 SSE 16 0 0,0
13.10.2018 20:00:00 13,4 6,0 11,7 11,0 12,7 11,2 31 17 50 27 SSE 18 0 0,0
13.10.2018 19:00:00 13,6 6,9 12,1 11,8 12,9 11,2 27 14 41 22 SSE 18 0 0,0
13.10.2018 18:00:00 13,8 7,7 12,4 13,2 13,0 11,2 26 14 44 24 SSE 14 58 0,0
13.10.2018 17:00:00 14,3 7,3 13,8 15,3 12,8 11,2 31 17 48 26 S 12 60 0,0
13.10.2018 16:00:00 14,8 7,1 15,8 16,6 12,4 11,1 37 20 48 26 SSE 11 60 0,0
13.10.2018 15:00:00 15,1 7,5 17,5 18,1 11,8 11,1 24 13 35 19 SSE 13 60 0,0
13.10.2018 14:00:00 14,5 7,2 17,1 17,6 11,1 11,1 23 12 33 18 SSE 11 60 0,0
13.10.2018 13:00:00 14,2 7,6 16,7 16,6 10,5 11,1 26 14 34 19 S 9 60 0,0
13.10.2018 12:00:00 13,4 7,8 15,7 15,0 9,9 11,1 25 13 37 20 SSE 8 60 0,0
13.10.2018 11:00:00 12,4 7,4 13,7 12,8 9,6 11,1 26 14 34 19 SSE 8 60 0,0
13.10.2018 10:00:00 12,2 7,5 13,0 10,4 9,4 11,1 21 11 27 15 SSE 9 60 0,0
13.10.2018 09:00:00 10,7 7,2 10,8 8,3 9,5 11,1 20 11 24 13 SSE 13 57 0,0
13.10.2018 08:00:00 9,0 6,6 7,6 6,9 9,7 11,1 21 12 25 13 SSE 8 0 0,0
13.10.2018 07:00:00 8,4 6,4 6,8 6,9 9,9 11,1 21 11 22 12 SSE 8 0 0,0
13.10.2018 06:00:00 9,2 6,8 7,3 7,2 10,1 11,1 17 9 19 10 S 8 0 0,0
13.10.2018 05:00:00 9,8 7,2 7,7 7,4 10,3 11,1 16 9 18 10 SSE 7 0 0,0
13.10.2018 04:00:00 10,6 7,4 8,0 7,6 10,5 11,1 16 8 18 10 S 8 0 0,0
13.10.2018 03:00:00 10,9 7,0 7,6 7,6 10,8 11,1 13 7 17 9 S 10 0 0,0
13.10.2018 02:00:00 11,0 6,7 7,2 8,0 11,1 11,1 11 6 19 10 S 10 0 0,0
13.10.2018 01:00:00 11,7 6,7 8,3 8,5 11,4 11,1 15 8 20 11 S 12 0 0,0
13.10.2018 00:00:00 11,4 6,8 8,8 8,7 11,7 11,1 16 9 19 10 S 13 0 0,0
12.10.2018 23:00:00 11,3 6,7 8,0 9,1 12,0 11,1 12 7 16 9 S 14 0 0,0
12.10.2018 22:00:00 11,8 7,0 8,0 9,6 12,4 11,1 10 5 14 8 S 14 0 0,0
12.10.2018 21:00:00 11,8 6,7 8,4 10,2 12,8 11,1 12 6 16 8 S 15 0 0,0
12.10.2018 20:00:00 12,5 6,3 8,4 11,1 13,1 11,1 9 5 13 7 S 19 0 0,0
12.10.2018 19:00:00 12,9 6,4 9,4 12,3 13,4 11,0 10 6 16 9 S 21 0 0,0
12.10.2018 18:00:00 14,3 7,2 12,4 14,2 13,4 11,0 15 8 19 10 S 21 60 0,0
12.10.2018 17:00:00 15,6 7,5 15,1 16,6 13,1 11,0 15 8 23 12 S 15 60 0,0
12.10.2018 16:00:00 16,2 7,5 17,9 17,8 12,7 11,0 19 10 25 13 S 17 60 0,0
12.10.2018 15:00:00 16,6 8,5 19,5 19,0 12,0 11,0 18 10 26 14 S 18 60 0,0
12.10.2018 14:00:00 16,0 8,5 19,1 18,7 11,2 11,0 18 10 25 14 S 11 60 0,0

tt = temperature
td = dewpoint
tt 5cm = temperature 5cm
tt -5cm = temperature -5cm
tt -20cm = temperature -20cm
tt -100cm = temperature -100cm
ff = wind speed
fx = gusts
dd = wind direction
vv = visibility
sd = sunshine duration
rr = precipitation

Next stations